createdAt,value
2022-11-07T00:00:50.796Z,98305.94
2022-11-07T00:03:54.050Z,98322.41
2022-11-07T00:06:55.403Z,98331.09
2022-11-07T00:09:56.808Z,98325.03
2022-11-07T00:12:58.153Z,98327.63
2022-11-07T00:15:59.895Z,98327.63
2022-11-07T00:19:01.242Z,98312.88
2022-11-07T00:22:02.622Z,98317.22
2022-11-07T00:25:04.050Z,98317.22
2022-11-07T00:28:05.381Z,98318.09
2022-11-07T00:31:06.697Z,98327.59
2022-11-07T00:34:08.139Z,98336.28
2022-11-07T00:37:09.521Z,98345.84
2022-11-07T00:40:11.014Z,98350.13
2022-11-07T00:43:12.600Z,98373.53
2022-11-07T00:46:14.753Z,98377.06
2022-11-07T00:49:16.134Z,98386.63
2022-11-07T00:52:17.449Z,98376.19
2022-11-07T00:55:18.754Z,98375.31
2022-11-07T00:58:20.103Z,98393.56
2022-11-07T01:01:22.425Z,98390.97
2022-11-07T01:04:42.594Z,98392.63
2022-11-07T01:07:43.971Z,98390.91
2022-11-07T01:10:45.285Z,98388.34
2022-11-07T01:13:46.615Z,98382.31
2022-11-07T01:16:48.069Z,98388.38
2022-11-07T01:19:49.377Z,98392.72
2022-11-07T01:22:50.749Z,98402.25
2022-11-07T01:25:52.079Z,98401.41
2022-11-07T01:28:53.393Z,98387.53
2022-11-07T01:31:54.866Z,98391.84
2022-11-07T01:34:56.180Z,98393.63
2022-11-07T01:37:57.535Z,98384.06
2022-11-07T01:41:17.670Z,98371.94
2022-11-07T01:44:18.946Z,98354.56
2022-11-07T01:47:20.269Z,98358.03
2022-11-07T01:50:24.666Z,98351.09
2022-11-07T01:53:26.270Z,98338.09
2022-11-07T01:56:28.061Z,98338.06
2022-11-07T01:59:29.777Z,98325.91
2022-11-07T02:02:31.293Z,98333.72
2022-11-07T02:05:34.323Z,98326.81
2022-11-07T02:08:35.648Z,98338.09
2022-11-07T02:11:36.968Z,98331.09
2022-11-07T02:14:38.292Z,98351.75
2022-11-07T02:17:39.651Z,98364.00
2022-11-07T02:20:41.001Z,98378.75
2022-11-07T02:23:46.124Z,98387.47
2022-11-07T02:26:47.495Z,98401.34
2022-11-07T02:29:49.622Z,98387.44
2022-11-07T02:32:50.948Z,98384.75
2022-11-07T02:35:52.530Z,98398.63
2022-11-07T02:38:58.671Z,98419.50
2022-11-07T02:42:00.084Z,98417.63
2022-11-07T02:45:01.389Z,98424.63
2022-11-07T02:48:02.814Z,98422.00
2022-11-07T02:51:04.184Z,98431.59
2022-11-07T02:54:05.511Z,98422.06
2022-11-07T02:57:06.830Z,98419.41
2022-11-07T03:00:09.277Z,98426.38
2022-11-07T03:03:10.614Z,98423.78
2022-11-07T03:06:13.008Z,98423.75
2022-11-07T03:09:14.358Z,98429.72
2022-11-07T03:12:15.683Z,98434.03
2022-11-07T03:15:17.006Z,98434.06
2022-11-07T03:18:18.636Z,98440.16
2022-11-07T03:21:20.334Z,98436.75
2022-11-07T03:24:21.662Z,98434.94
2022-11-07T03:27:23.024Z,98444.38
2022-11-07T03:30:24.374Z,98441.84
2022-11-07T03:33:25.715Z,98445.41
2022-11-07T03:36:27.044Z,98447.03
2022-11-07T03:39:28.359Z,98447.97
2022-11-07T03:42:29.700Z,98451.34
2022-11-07T03:45:31.057Z,98451.41
2022-11-07T03:48:32.377Z,98454.94
2022-11-07T03:51:33.728Z,98459.25
2022-11-07T03:54:35.181Z,98463.56
2022-11-07T03:57:36.723Z,98459.25
2022-11-07T04:00:38.071Z,98457.56
2022-11-07T04:03:39.425Z,98462.78
2022-11-07T04:06:40.752Z,98462.81
2022-11-07T04:09:42.097Z,98469.59
2022-11-07T04:13:02.740Z,98475.66
2022-11-07T04:16:22.837Z,98473.13
2022-11-07T04:19:26.509Z,98471.41
2022-11-07T04:22:27.917Z,98474.94
2022-11-07T04:25:47.640Z,98473.19
2022-11-07T04:28:49.025Z,98474.03
2022-11-07T04:31:50.499Z,98468.81
2022-11-07T04:34:51.926Z,98488.75
2022-11-07T04:37:53.298Z,98495.72
2022-11-07T04:40:55.397Z,98497.50
2022-11-07T04:43:56.776Z,98486.25
2022-11-07T04:46:58.087Z,98471.47
2022-11-07T04:49:59.416Z,98473.22
2022-11-07T04:53:00.779Z,98481.03
2022-11-07T04:56:02.094Z,98481.00
2022-11-07T04:59:03.413Z,98487.13
2022-11-07T05:02:04.806Z,98477.63
2022-11-07T05:05:06.439Z,98470.66
2022-11-07T05:08:08.523Z,98473.34
2022-11-07T05:11:09.896Z,98468.13
2022-11-07T05:14:11.217Z,98462.94
2022-11-07T05:17:15.541Z,98450.75
2022-11-07T05:20:22.894Z,98443.81
2022-11-07T05:23:25.176Z,98432.53
2022-11-07T05:26:26.529Z,98431.69
2022-11-07T05:29:27.858Z,98440.34
2022-11-07T05:32:29.195Z,98427.31
2022-11-07T05:35:30.540Z,98439.38
2022-11-07T05:38:31.930Z,98452.38
2022-11-07T05:41:34.999Z,98456.75
2022-11-07T05:44:36.736Z,98445.47
2022-11-07T05:47:38.073Z,98463.75
2022-11-07T05:50:39.500Z,98445.53
2022-11-07T05:53:40.856Z,98439.47
2022-11-07T05:56:43.987Z,98442.06
2022-11-07T05:59:45.312Z,98435.13
2022-11-07T06:02:53.406Z,98443.00
2022-11-07T06:05:54.768Z,98431.72
2022-11-07T06:08:56.279Z,98431.69
2022-11-07T06:11:57.596Z,98427.38
2022-11-07T06:14:59.165Z,98433.44
2022-11-07T06:18:03.921Z,98426.50
2022-11-07T06:21:05.362Z,98430.84
2022-11-07T06:24:08.837Z,98431.72
2022-11-07T06:27:14.268Z,98435.16
2022-11-07T06:30:15.579Z,98433.44
2022-11-07T06:33:18.126Z,98449.06
2022-11-07T06:36:19.949Z,98452.53
2022-11-07T06:39:21.433Z,98457.78
2022-11-07T06:42:24.940Z,98453.47
2022-11-07T06:45:26.266Z,98456.06
2022-11-07T06:48:27.587Z,98448.25
2022-11-07T06:51:28.953Z,98450.00
2022-11-07T06:54:30.270Z,98445.63
2022-11-07T06:57:31.641Z,98463.03
2022-11-07T07:00:33.444Z,98466.53
2022-11-07T07:03:34.878Z,98465.66
2022-11-07T07:06:36.253Z,98469.13
2022-11-07T07:09:37.595Z,98475.22
2022-11-07T07:12:38.942Z,98480.41
2022-11-07T07:15:50.507Z,98470.84
2022-11-07T07:18:52.692Z,98469.97
2022-11-07T07:21:54.093Z,98479.50
2022-11-07T07:24:55.425Z,98486.47
2022-11-07T07:27:56.796Z,98488.19
2022-11-07T07:31:08.495Z,98487.31
2022-11-07T07:34:09.828Z,98491.56
2022-11-07T07:37:11.211Z,98512.34
2022-11-07T07:40:12.582Z,98541.84
2022-11-07T07:43:14.239Z,98555.72
2022-11-07T07:46:16.461Z,98559.16
2022-11-07T07:49:17.800Z,98566.91
2022-11-07T07:52:19.184Z,98572.97
2022-11-07T07:55:20.647Z,98579.03
2022-11-07T07:58:21.996Z,98587.72
2022-11-07T08:01:23.381Z,98595.47
2022-11-07T08:04:24.804Z,98597.13
2022-11-07T08:07:26.147Z,98602.41
2022-11-07T08:10:41.505Z,98610.22
2022-11-07T08:13:44.055Z,98611.09
2022-11-07T08:16:45.378Z,98611.97
2022-11-07T08:19:46.802Z,98615.31
2022-11-07T08:22:48.148Z,98618.63
2022-11-07T08:25:53.067Z,98624.66
2022-11-07T08:28:54.625Z,98630.78
2022-11-07T08:31:55.976Z,98625.59
2022-11-07T08:34:57.339Z,98619.41
2022-11-07T08:37:58.925Z,98621.00
2022-11-07T08:41:00.293Z,98620.78
2022-11-07T08:44:01.633Z,98620.63
2022-11-07T08:47:08.321Z,98618.69
2022-11-07T08:50:10.064Z,98613.22
2022-11-07T08:53:11.482Z,98624.03
2022-11-07T08:56:12.800Z,98625.19
2022-11-07T08:59:14.364Z,98617.59
2022-11-07T09:02:53.937Z,98621.19
2022-11-07T09:05:36.996Z,98612.56
2022-11-07T09:08:38.336Z,98623.38
2022-11-07T09:11:40.285Z,98634.38
2022-11-07T09:14:41.668Z,98644.34
2022-11-07T09:17:42.999Z,98644.56
2022-11-07T09:20:44.315Z,98640.44
2022-11-07T09:23:45.653Z,98640.53
2022-11-07T09:26:47.575Z,98649.28
2022-11-07T09:29:48.892Z,98640.69
2022-11-07T09:32:50.316Z,98641.56
2022-11-07T09:35:51.678Z,98644.19
2022-11-07T09:38:56.095Z,98651.28
2022-11-07T09:41:59.292Z,98649.44
2022-11-07T09:45:00.691Z,98635.44
2022-11-07T09:48:03.742Z,98651.84
2022-11-07T09:51:05.061Z,98645.75
2022-11-07T09:54:13.713Z,98664.00
2022-11-07T09:57:15.580Z,98649.97
2022-11-07T10:00:17.487Z,98642.72
2022-11-07T10:03:19.045Z,98659.53
2022-11-07T10:06:34.044Z,98664.22
2022-11-07T10:09:38.338Z,98657.28
2022-11-07T10:12:44.755Z,98660.84
2022-11-07T10:16:06.963Z,98663.44
2022-11-07T10:19:16.352Z,98671.03
2022-11-07T10:22:23.736Z,98666.53
2022-11-07T10:25:28.662Z,98665.88
2022-11-07T10:28:30.009Z,98657.41
2022-11-07T10:31:33.272Z,98654.78
2022-11-07T10:34:38.146Z,98665.28
2022-11-07T10:37:39.488Z,98647.84
2022-11-07T10:40:41.492Z,98658.00
2022-11-07T10:43:43.313Z,98657.72
2022-11-07T10:46:46.822Z,98645.53
2022-11-07T10:49:55.177Z,98640.38
2022-11-07T10:53:00.555Z,98649.94
2022-11-07T10:56:01.905Z,98651.72
2022-11-07T10:59:03.219Z,98650.69
2022-11-07T11:02:14.070Z,98646.13
2022-11-07T11:05:22.159Z,98645.19
2022-11-07T11:08:23.952Z,98653.78
2022-11-07T11:11:25.239Z,98641.47
2022-11-07T11:14:26.640Z,98641.22
2022-11-07T11:17:28.542Z,98644.59
2022-11-07T11:20:30.968Z,98645.94
2022-11-07T11:23:36.815Z,98646.84
2022-11-07T11:26:38.170Z,98649.66
2022-11-07T11:29:48.777Z,98643.78
2022-11-07T11:32:56.794Z,98633.44
2022-11-07T11:36:08.886Z,98630.88
2022-11-07T11:39:15.139Z,98631.75
2022-11-07T11:42:19.944Z,98624.47
2022-11-07T11:45:39.811Z,98625.13
2022-11-07T11:48:45.172Z,98621.56
2022-11-07T11:51:48.485Z,98616.28
2022-11-07T11:54:50.262Z,98617.88
2022-11-07T11:57:58.986Z,98614.84
2022-11-07T12:01:03.353Z,98611.13
2022-11-07T12:04:12.211Z,98615.38
2022-11-07T12:07:13.503Z,98608.50
2022-11-07T12:10:27.123Z,98599.91
2022-11-07T12:13:47.287Z,98601.47
2022-11-07T12:16:48.578Z,98597.16
2022-11-07T12:19:51.105Z,98594.91
2022-11-07T12:23:04.697Z,98599.31
2022-11-07T12:26:09.462Z,98594.31
2022-11-07T12:29:28.089Z,98585.91
2022-11-07T12:32:33.147Z,98584.91
2022-11-07T12:35:54.079Z,98591.09
2022-11-07T12:38:58.268Z,98585.09
2022-11-07T12:42:02.595Z,98576.41
2022-11-07T12:45:16.298Z,98585.00
2022-11-07T12:48:32.007Z,98575.66
2022-11-07T12:51:52.196Z,98580.00
2022-11-07T12:54:55.710Z,98575.56
2022-11-07T12:57:57.038Z,98581.69
2022-11-07T13:00:58.441Z,98575.50
2022-11-07T13:04:16.274Z,98578.97
2022-11-07T13:07:20.216Z,98574.44
2022-11-07T13:10:24.019Z,98569.88
2022-11-07T13:13:40.584Z,98567.97
2022-11-07T13:17:03.766Z,98566.16
2022-11-07T13:20:05.536Z,98564.53
2022-11-07T13:23:13.686Z,98570.75
2022-11-07T13:26:45.326Z,98565.84
2022-11-07T13:29:37.984Z,98576.25
2022-11-07T13:32:42.671Z,98565.78
2022-11-07T13:35:51.916Z,98564.94
2022-11-07T13:38:54.873Z,98560.56
2022-11-07T13:41:56.254Z,98567.53
2022-11-07T13:45:07.517Z,98575.44
2022-11-07T13:48:15.334Z,98565.66
2022-11-07T13:51:28.921Z,98566.66
2022-11-07T13:54:41.075Z,98575.44
2022-11-07T13:58:03.429Z,98562.44
2022-11-07T14:01:09.620Z,98564.34
2022-11-07T14:04:17.638Z,98556.56
2022-11-07T14:07:23.438Z,98558.47
2022-11-07T14:10:32.062Z,98553.34
2022-11-07T14:13:41.310Z,98557.72
2022-11-07T14:16:46.160Z,98556.03
2022-11-07T14:19:47.502Z,98558.59
2022-11-07T14:22:50.360Z,98560.44
2022-11-07T14:25:55.919Z,98563.16
2022-11-07T14:28:57.808Z,98559.72
2022-11-07T14:31:59.976Z,98570.13
2022-11-07T14:35:01.330Z,98559.72
2022-11-07T14:38:08.892Z,98565.91
2022-11-07T14:41:10.237Z,98571.25
2022-11-07T14:44:13.214Z,98569.47
2022-11-07T14:47:19.148Z,98581.75
2022-11-07T14:50:24.179Z,98578.06
2022-11-07T14:53:31.303Z,98578.19
2022-11-07T14:56:33.742Z,98577.44
2022-11-07T14:59:35.584Z,98571.41
2022-11-07T15:02:37.041Z,98568.81
2022-11-07T15:05:38.362Z,98565.34
2022-11-07T15:08:39.675Z,98570.59
2022-11-07T15:11:41.767Z,98557.59
2022-11-07T15:14:43.112Z,98553.31
2022-11-07T15:17:54.926Z,98549.81
2022-11-07T15:20:57.219Z,98555.13
2022-11-07T15:23:58.984Z,98556.94
2022-11-07T15:27:15.580Z,98548.31
2022-11-07T15:30:30.838Z,98548.44
2022-11-07T15:33:32.279Z,98547.75
2022-11-07T15:36:36.211Z,98557.56
2022-11-07T15:39:41.691Z,98547.16
2022-11-07T15:42:43.172Z,98551.59
2022-11-07T15:45:44.533Z,98543.00
2022-11-07T15:48:45.891Z,98542.25
2022-11-07T15:51:47.287Z,98538.84
2022-11-07T15:54:48.618Z,98533.72
2022-11-07T15:57:51.466Z,98541.66
2022-11-07T16:00:52.886Z,98534.00
2022-11-07T16:03:55.354Z,98514.00
2022-11-07T16:06:56.684Z,98514.88
2022-11-07T16:09:58.114Z,98517.53
2022-11-07T16:13:03.906Z,98505.44
2022-11-07T16:16:06.494Z,98499.38
2022-11-07T16:19:08.648Z,98493.34
2022-11-07T16:22:10.594Z,98489.94
2022-11-07T16:25:21.465Z,98496.97
2022-11-07T16:28:27.210Z,98480.47
2022-11-07T16:31:28.964Z,98481.41
2022-11-07T16:34:30.319Z,98484.09
2022-11-07T16:37:31.670Z,98478.84
2022-11-07T16:40:33.045Z,98482.38
2022-11-07T16:43:35.537Z,98475.44
2022-11-07T16:46:36.912Z,98469.41
2022-11-07T16:49:39.250Z,98459.88
2022-11-07T16:52:40.647Z,98451.28
2022-11-07T16:55:43.114Z,98459.13
2022-11-07T16:58:44.470Z,98460.06
2022-11-07T17:01:45.943Z,98456.63
2022-11-07T17:04:47.426Z,98451.47
2022-11-07T17:07:49.368Z,98460.16
2022-11-07T17:10:50.752Z,98454.09
2022-11-07T17:13:52.083Z,98455.00
2022-11-07T17:16:53.439Z,98464.59
2022-11-07T17:19:54.784Z,98462.00
2022-11-07T17:22:56.211Z,98460.28
2022-11-07T17:25:59.571Z,98455.97
2022-11-07T17:29:00.944Z,98459.47
2022-11-07T17:32:02.302Z,98456.88
2022-11-07T17:35:31.653Z,98458.66
2022-11-07T17:38:25.472Z,98456.91
2022-11-07T17:41:30.059Z,98448.25
2022-11-07T17:44:31.387Z,98443.94
2022-11-07T17:47:34.341Z,98439.59
2022-11-07T17:50:35.846Z,98448.31
2022-11-07T17:53:37.237Z,98435.28
2022-11-07T17:56:38.637Z,98430.09
2022-11-07T17:59:45.623Z,98416.22
2022-11-07T18:02:48.279Z,98416.22
2022-11-07T18:05:49.761Z,98415.34
2022-11-07T18:08:52.861Z,98409.25
2022-11-07T18:11:54.599Z,98410.09
2022-11-07T18:14:56.539Z,98404.06
2022-11-07T18:17:57.901Z,98403.19
2022-11-07T18:20:59.920Z,98400.59
2022-11-07T18:24:01.320Z,98394.50
2022-11-07T18:27:05.579Z,98397.97
2022-11-07T18:30:10.992Z,98403.19
2022-11-07T18:33:12.380Z,98400.59
2022-11-07T18:36:14.624Z,98400.56
2022-11-07T18:39:17.023Z,98395.38
2022-11-07T18:42:18.382Z,98391.03
2022-11-07T18:45:19.801Z,98383.22
2022-11-07T18:48:21.218Z,98387.53
2022-11-07T18:51:23.249Z,98384.03
2022-11-07T18:54:26.153Z,98376.22
2022-11-07T18:57:27.633Z,98367.56
2022-11-07T19:00:30.917Z,98364.06
2022-11-07T19:03:32.623Z,98365.81
2022-11-07T19:06:33.951Z,98365.78
2022-11-07T19:09:35.807Z,98362.31
2022-11-07T19:12:37.164Z,98372.69
2022-11-07T19:15:39.425Z,98369.25
2022-11-07T19:18:42.189Z,98363.16
2022-11-07T19:21:46.615Z,98367.50
2022-11-07T19:24:48.025Z,98381.34
2022-11-07T19:27:50.572Z,98383.03
2022-11-07T19:30:51.894Z,98384.78
2022-11-07T19:33:53.238Z,98382.16
2022-11-07T19:36:54.653Z,98384.75
2022-11-07T19:39:55.975Z,98380.41
2022-11-07T19:42:57.309Z,98371.66
2022-11-07T19:45:58.744Z,98378.53
2022-11-07T19:49:00.080Z,98384.59
2022-11-07T19:52:01.533Z,98389.72
2022-11-07T19:55:02.966Z,98388.84
2022-11-07T19:58:04.290Z,98396.66
2022-11-07T20:01:09.953Z,98389.72
2022-11-07T20:04:11.361Z,98387.13
2022-11-07T20:07:13.332Z,98385.34
2022-11-07T20:10:14.680Z,98387.94
2022-11-07T20:13:16.359Z,98384.47
2022-11-07T20:16:17.963Z,98382.72
2022-11-07T20:19:19.278Z,98381.88
2022-11-07T20:22:20.625Z,98388.75
2022-11-07T20:25:21.949Z,98384.44
2022-11-07T20:28:23.328Z,98387.06
2022-11-07T20:31:25.441Z,98382.69
2022-11-07T20:34:26.786Z,98387.00
2022-11-07T20:37:28.141Z,98386.09
2022-11-07T20:40:29.939Z,98390.38
2022-11-07T20:43:32.302Z,98388.59
2022-11-07T20:46:34.816Z,98376.53
2022-11-07T20:49:36.288Z,98377.41
2022-11-07T20:52:37.670Z,98379.94
2022-11-07T20:55:39.819Z,98395.41
2022-11-07T20:58:41.809Z,98391.09
2022-11-07T21:01:43.227Z,98382.50
2022-11-07T21:05:11.236Z,98386.75
2022-11-07T21:08:06.015Z,98382.34
2022-11-07T21:11:07.342Z,98378.91
2022-11-07T21:14:09.149Z,98390.09
2022-11-07T21:17:10.475Z,98385.63
2022-11-07T21:20:11.917Z,98376.09
2022-11-07T21:23:13.386Z,98371.72
2022-11-07T21:26:31.811Z,98364.72
2022-11-07T21:29:33.305Z,98367.25
2022-11-07T21:32:34.691Z,98358.56
2022-11-07T21:35:39.609Z,98358.50
2022-11-07T21:38:41.272Z,98356.78
2022-11-07T21:41:42.642Z,98358.47
2022-11-07T21:44:43.994Z,98350.72
2022-11-07T21:47:46.126Z,98348.91
2022-11-07T21:50:47.560Z,98349.66
2022-11-07T21:53:48.971Z,98351.38
2022-11-07T21:56:50.293Z,98346.28
2022-11-07T21:59:51.682Z,98344.56
2022-11-07T22:02:53.013Z,98341.88
2022-11-07T22:05:54.376Z,98335.78
2022-11-07T22:08:55.712Z,98335.72
2022-11-07T22:11:57.716Z,98337.41
2022-11-07T22:14:59.040Z,98330.50
2022-11-07T22:18:00.379Z,98320.09
2022-11-07T22:21:02.071Z,98320.09
2022-11-07T22:24:03.436Z,98314.81
2022-11-07T22:27:04.780Z,98318.19
2022-11-07T22:30:06.242Z,98321.63
2022-11-07T22:33:07.569Z,98306.13
2022-11-07T22:36:09.326Z,98300.94
2022-11-07T22:39:10.682Z,98297.47
2022-11-07T22:42:12.023Z,98294.91
2022-11-07T22:45:13.622Z,98288.00
2022-11-07T22:48:14.976Z,98283.63
2022-11-07T22:51:17.706Z,98278.41
2022-11-07T22:54:19.010Z,98285.28
2022-11-07T22:57:20.330Z,98280.88
2022-11-07T23:00:22.182Z,98283.44
2022-11-07T23:03:23.756Z,98283.41
2022-11-07T23:06:25.359Z,98272.13
2022-11-07T23:09:26.696Z,98272.19
2022-11-07T23:12:28.060Z,98273.09
2022-11-07T23:15:30.341Z,98269.53
2022-11-07T23:18:31.732Z,98266.91
2022-11-07T23:21:33.170Z,98262.63
2022-11-07T23:24:34.502Z,98266.94
2022-11-07T23:27:35.900Z,98260.81
2022-11-07T23:30:37.841Z,98255.53
2022-11-07T23:33:39.591Z,98265.88
2022-11-07T23:36:43.865Z,98259.91
2022-11-07T23:39:45.532Z,98248.63
2022-11-07T23:42:46.954Z,98251.22
2022-11-07T23:46:06.995Z,98246.00
2022-11-07T23:49:27.502Z,98240.84
2022-11-07T23:52:28.835Z,98240.69
2022-11-07T23:55:42.362Z,98233.75
2022-11-07T23:59:02.464Z,98236.34
